sensor_id;sensor_type;location;lat;lon;timestamp;P1;P2;P0
80643;PMS5003;70010;60.224;24.712;2023-07-20T00:00:50;3;2;
80643;PMS5003;70010;60.224;24.712;2023-07-20T00:03:15;2;1;
80643;PMS5003;70010;60.224;24.712;2023-07-20T00:05:40;4;3;
80643;PMS5003;70010;60.224;24.712;2023-07-20T00:08:05;2;2;
80643;PMS5003;70010;60.224;24.712;2023-07-20T00:10:31;3;3;
80643;PMS5003;70010;60.224;24.712;2023-07-20T00:12:56;3;2;
80643;PMS5003;70010;60.224;24.712;2023-07-20T00:15:21;4;4;
80643;PMS5003;70010;60.224;24.712;2023-07-20T00:17:47;5;4;
80643;PMS5003;70010;60.224;24.712;2023-07-20T00:20:12;4;4;
80643;PMS5003;70010;60.224;24.712;2023-07-20T00:22:38;3;3;
80643;PMS5003;70010;60.224;24.712;2023-07-20T00:25:03;6;3;
80643;PMS5003;70010;60.224;24.712;2023-07-20T00:27:28;4;4;
80643;PMS5003;70010;60.224;24.712;2023-07-20T00:29:54;2;2;
80643;PMS5003;70010;60.224;24.712;2023-07-20T00:32:19;2;2;
80643;PMS5003;70010;60.224;24.712;2023-07-20T00:34:45;5;4;
80643;PMS5003;70010;60.224;24.712;2023-07-20T00:37:10;4;4;
80643;PMS5003;70010;60.224;24.712;2023-07-20T00:39:36;5;4;
80643;PMS5003;70010;60.224;24.712;2023-07-20T00:42:01;8;5;
80643;PMS5003;70010;60.224;24.712;2023-07-20T00:44:26;5;5;
80643;PMS5003;70010;60.224;24.712;2023-07-20T00:46:52;4;4;
80643;PMS5003;70010;60.224;24.712;2023-07-20T00:49:17;9;5;
80643;PMS5003;70010;60.224;24.712;2023-07-20T00:51:43;4;3;
80643;PMS5003;70010;60.224;24.712;2023-07-20T00:54:08;4;4;
80643;PMS5003;70010;60.224;24.712;2023-07-20T00:56:33;4;4;
80643;PMS5003;70010;60.224;24.712;2023-07-20T00:58:58;11;5;
80643;PMS5003;70010;60.224;24.712;2023-07-20T01:01:24;5;5;
80643;PMS5003;70010;60.224;24.712;2023-07-20T01:03:49;7;5;
80643;PMS5003;70010;60.224;24.712;2023-07-20T01:06:15;4;4;
80643;PMS5003;70010;60.224;24.712;2023-07-20T01:08:40;4;4;
80643;PMS5003;70010;60.224;24.712;2023-07-20T01:11:06;4;4;
80643;PMS5003;70010;60.224;24.712;2023-07-20T01:13:31;5;4;
80643;PMS5003;70010;60.224;24.712;2023-07-20T01:15:56;4;2;
80643;PMS5003;70010;60.224;24.712;2023-07-20T01:18:21;5;3;
80643;PMS5003;70010;60.224;24.712;2023-07-20T01:20:47;6;3;
80643;PMS5003;70010;60.224;24.712;2023-07-20T01:23:18;7;5;
80643;PMS5003;70010;60.224;24.712;2023-07-20T01:28:08;2;2;
80643;PMS5003;70010;60.224;24.712;2023-07-20T01:30:34;4;3;
80643;PMS5003;70010;60.224;24.712;2023-07-20T01:32:54;4;2;
80643;PMS5003;70010;60.224;24.712;2023-07-20T01:35:19;3;3;
80643;PMS5003;70010;60.224;24.712;2023-07-20T01:37:45;5;5;
80643;PMS5003;70010;60.224;24.712;2023-07-20T01:40:10;6;4;
80643;PMS5003;70010;60.224;24.712;2023-07-20T01:42:35;4;4;
80643;PMS5003;70010;60.224;24.712;2023-07-20T01:45:00;4;4;
80643;PMS5003;70010;60.224;24.712;2023-07-20T01:47:26;4;3;
80643;PMS5003;70010;60.224;24.712;2023-07-20T01:49:51;2;2;
80643;PMS5003;70010;60.224;24.712;2023-07-20T01:52:16;3;3;
80643;PMS5003;70010;60.224;24.712;2023-07-20T01:54:41;4;4;
80643;PMS5003;70010;60.224;24.712;2023-07-20T01:57:07;4;4;
80643;PMS5003;70010;60.224;24.712;2023-07-20T01:59:32;4;4;
80643;PMS5003;70010;60.224;24.712;2023-07-20T02:01:58;5;3;
80643;PMS5003;70010;60.224;24.712;2023-07-20T02:04:23;5;4;
80643;PMS5003;70010;60.224;24.712;2023-07-20T02:06:48;6;4;
80643;PMS5003;70010;60.224;24.712;2023-07-20T02:09:14;4;4;
80643;PMS5003;70010;60.224;24.712;2023-07-20T02:11:39;4;4;
80643;PMS5003;70010;60.224;24.712;2023-07-20T02:14:04;4;4;
80643;PMS5003;70010;60.224;24.712;2023-07-20T02:16:30;4;4;
80643;PMS5003;70010;60.224;24.712;2023-07-20T02:18:55;7;5;
80643;PMS5003;70010;60.224;24.712;2023-07-20T02:21:20;3;3;
80643;PMS5003;70010;60.224;24.712;2023-07-20T02:23:46;3;3;
80643;PMS5003;70010;60.224;24.712;2023-07-20T02:26:11;5;5;
80643;PMS5003;70010;60.224;24.712;2023-07-20T02:28:36;3;3;
80643;PMS5003;70010;60.224;24.712;2023-07-20T02:31:02;4;4;
80643;PMS5003;70010;60.224;24.712;2023-07-20T02:33:27;4;3;
80643;PMS5003;70010;60.224;24.712;2023-07-20T02:35:52;4;4;
80643;PMS5003;70010;60.224;24.712;2023-07-20T02:38:17;6;4;
80643;PMS5003;70010;60.224;24.712;2023-07-20T02:40:43;4;4;
80643;PMS5003;70010;60.224;24.712;2023-07-20T02:43:08;4;2;
80643;PMS5003;70010;60.224;24.712;2023-07-20T02:45:33;7;5;
80643;PMS5003;70010;60.224;24.712;2023-07-20T02:47:58;4;3;
80643;PMS5003;70010;60.224;24.712;2023-07-20T02:50:24;5;5;
80643;PMS5003;70010;60.224;24.712;2023-07-20T02:52:49;7;4;
80643;PMS5003;70010;60.224;24.712;2023-07-20T02:55:14;4;4;
80643;PMS5003;70010;60.224;24.712;2023-07-20T02:57:39;4;3;
80643;PMS5003;70010;60.224;24.712;2023-07-20T03:00:05;3;3;
80643;PMS5003;70010;60.224;24.712;2023-07-20T03:02:30;3;3;
80643;PMS5003;70010;60.224;24.712;2023-07-20T03:04:55;3;3;
80643;PMS5003;70010;60.224;24.712;2023-07-20T03:07:21;3;3;
80643;PMS5003;70010;60.224;24.712;2023-07-20T03:09:46;9;6;
80643;PMS5003;70010;60.224;24.712;2023-07-20T03:12:11;4;3;
80643;PMS5003;70010;60.224;24.712;2023-07-20T03:14:37;4;4;
80643;PMS5003;70010;60.224;24.712;2023-07-20T03:17:02;7;5;
80643;PMS5003;70010;60.224;24.712;2023-07-20T03:19:27;4;4;
80643;PMS5003;70010;60.224;24.712;2023-07-20T03:21:53;7;7;
80643;PMS5003;70010;60.224;24.712;2023-07-20T03:24:18;5;4;
80643;PMS5003;70010;60.224;24.712;2023-07-20T03:26:43;6;5;
80643;PMS5003;70010;60.224;24.712;2023-07-20T03:29:09;5;5;
80643;PMS5003;70010;60.224;24.712;2023-07-20T03:31:34;7;6;
80643;PMS5003;70010;60.224;24.712;2023-07-20T03:33:59;8;6;
80643;PMS5003;70010;60.224;24.712;2023-07-20T03:36:24;5;4;
80643;PMS5003;70010;60.224;24.712;2023-07-20T03:38:50;6;6;
80643;PMS5003;70010;60.224;24.712;2023-07-20T03:41:15;4;4;
80643;PMS5003;70010;60.224;24.712;2023-07-20T03:43:40;6;6;
80643;PMS5003;70010;60.224;24.712;2023-07-20T03:46:06;7;7;
80643;PMS5003;70010;60.224;24.712;2023-07-20T03:48:31;5;4;
80643;PMS5003;70010;60.224;24.712;2023-07-20T03:50:57;4;4;
80643;PMS5003;70010;60.224;24.712;2023-07-20T03:53:22;3;3;
80643;PMS5003;70010;60.224;24.712;2023-07-20T03:55:48;5;5;
80643;PMS5003;70010;60.224;24.712;2023-07-20T03:58:13;7;7;
80643;PMS5003;70010;60.224;24.712;2023-07-20T04:00:38;4;4;
80643;PMS5003;70010;60.224;24.712;2023-07-20T04:03:03;8;5;
80643;PMS5003;70010;60.224;24.712;2023-07-20T04:05:29;9;7;
80643;PMS5003;70010;60.224;24.712;2023-07-20T04:07:54;7;6;
80643;PMS5003;70010;60.224;24.712;2023-07-20T04:10:19;7;7;
80643;PMS5003;70010;60.224;24.712;2023-07-20T04:12:44;8;8;
80643;PMS5003;70010;60.224;24.712;2023-07-20T04:15:10;10;9;
80643;PMS5003;70010;60.224;24.712;2023-07-20T04:17:35;14;12;
80643;PMS5003;70010;60.224;24.712;2023-07-20T04:20:00;8;8;
80643;PMS5003;70010;60.224;24.712;2023-07-20T04:22:26;17;9;
80643;PMS5003;70010;60.224;24.712;2023-07-20T04:24:51;11;10;
80643;PMS5003;70010;60.224;24.712;2023-07-20T04:27:16;11;10;
80643;PMS5003;70010;60.224;24.712;2023-07-20T04:29:41;17;14;
80643;PMS5003;70010;60.224;24.712;2023-07-20T04:32:07;15;15;
80643;PMS5003;70010;60.224;24.712;2023-07-20T04:34:32;20;17;
80643;PMS5003;70010;60.224;24.712;2023-07-20T04:36:57;14;12;
80643;PMS5003;70010;60.224;24.712;2023-07-20T04:39:23;9;7;
80643;PMS5003;70010;60.224;24.712;2023-07-20T04:41:48;11;11;
80643;PMS5003;70010;60.224;24.712;2023-07-20T04:44:14;10;9;
80643;PMS5003;70010;60.224;24.712;2023-07-20T04:46:39;11;9;
80643;PMS5003;70010;60.224;24.712;2023-07-20T04:49:04;10;10;
80643;PMS5003;70010;60.224;24.712;2023-07-20T04:51:29;12;11;
80643;PMS5003;70010;60.224;24.712;2023-07-20T04:53:54;8;8;
80643;PMS5003;70010;60.224;24.712;2023-07-20T04:56:20;9;9;
80643;PMS5003;70010;60.224;24.712;2023-07-20T04:58:46;9;9;
80643;PMS5003;70010;60.224;24.712;2023-07-20T05:01:11;12;11;
80643;PMS5003;70010;60.224;24.712;2023-07-20T05:03:37;8;7;
80643;PMS5003;70010;60.224;24.712;2023-07-20T05:06:02;9;8;
80643;PMS5003;70010;60.224;24.712;2023-07-20T05:08:28;9;9;
80643;PMS5003;70010;60.224;24.712;2023-07-20T05:10:53;10;8;
80643;PMS5003;70010;60.224;24.712;2023-07-20T05:13:18;8;8;
80643;PMS5003;70010;60.224;24.712;2023-07-20T05:15:44;11;11;
80643;PMS5003;70010;60.224;24.712;2023-07-20T05:18:09;6;6;
80643;PMS5003;70010;60.224;24.712;2023-07-20T05:20:34;8;7;
80643;PMS5003;70010;60.224;24.712;2023-07-20T05:23:00;7;7;
80643;PMS5003;70010;60.224;24.712;2023-07-20T05:25:25;9;9;
80643;PMS5003;70010;60.224;24.712;2023-07-20T05:27:51;7;6;
80643;PMS5003;70010;60.224;24.712;2023-07-20T05:30:15;6;6;
80643;PMS5003;70010;60.224;24.712;2023-07-20T05:32:40;8;6;
80643;PMS5003;70010;60.224;24.712;2023-07-20T05:35:06;5;5;
80643;PMS5003;70010;60.224;24.712;2023-07-20T05:37:32;5;5;
80643;PMS5003;70010;60.224;24.712;2023-07-20T05:39:57;8;5;
80643;PMS5003;70010;60.224;24.712;2023-07-20T05:42:22;6;4;
80643;PMS5003;70010;60.224;24.712;2023-07-20T05:44:48;9;7;
80643;PMS5003;70010;60.224;24.712;2023-07-20T05:47:13;4;4;
80643;PMS5003;70010;60.224;24.712;2023-07-20T05:49:38;7;7;
80643;PMS5003;70010;60.224;24.712;2023-07-20T05:52:04;3;3;
80643;PMS5003;70010;60.224;24.712;2023-07-20T05:54:29;3;3;
80643;PMS5003;70010;60.224;24.712;2023-07-20T05:56:54;7;4;
80643;PMS5003;70010;60.224;24.712;2023-07-20T05:59:19;4;4;
80643;PMS5003;70010;60.224;24.712;2023-07-20T06:01:45;10;6;
80643;PMS5003;70010;60.224;24.712;2023-07-20T06:04:10;4;4;
80643;PMS5003;70010;60.224;24.712;2023-07-20T06:06:35;4;4;
80643;PMS5003;70010;60.224;24.712;2023-07-20T06:09:00;3;3;
80643;PMS5003;70010;60.224;24.712;2023-07-20T06:11:25;6;4;
80643;PMS5003;70010;60.224;24.712;2023-07-20T06:13:51;3;3;
80643;PMS5003;70010;60.224;24.712;2023-07-20T06:16:16;4;4;
80643;PMS5003;70010;60.224;24.712;2023-07-20T06:18:41;3;3;
80643;PMS5003;70010;60.224;24.712;2023-07-20T06:21:06;4;4;
80643;PMS5003;70010;60.224;24.712;2023-07-20T06:23:32;5;4;
80643;PMS5003;70010;60.224;24.712;2023-07-20T06:25:57;3;3;
80643;PMS5003;70010;60.224;24.712;2023-07-20T06:28:22;3;3;
80643;PMS5003;70010;60.224;24.712;2023-07-20T06:30:47;4;3;
80643;PMS5003;70010;60.224;24.712;2023-07-20T06:33:12;6;4;
80643;PMS5003;70010;60.224;24.712;2023-07-20T06:35:40;2;2;
80643;PMS5003;70010;60.224;24.712;2023-07-20T06:38:03;5;4;
80643;PMS5003;70010;60.224;24.712;2023-07-20T06:40:28;4;4;
80643;PMS5003;70010;60.224;24.712;2023-07-20T06:42:53;4;4;
80643;PMS5003;70010;60.224;24.712;2023-07-20T06:45:19;4;4;
80643;PMS5003;70010;60.224;24.712;2023-07-20T06:47:44;3;3;
80643;PMS5003;70010;60.224;24.712;2023-07-20T06:50:10;4;4;
80643;PMS5003;70010;60.224;24.712;2023-07-20T06:52:35;7;7;
80643;PMS5003;70010;60.224;24.712;2023-07-20T06:55:00;10;5;
80643;PMS5003;70010;60.224;24.712;2023-07-20T06:57:25;2;2;
80643;PMS5003;70010;60.224;24.712;2023-07-20T06:59:51;4;4;
80643;PMS5003;70010;60.224;24.712;2023-07-20T07:02:16;5;5;
80643;PMS5003;70010;60.224;24.712;2023-07-20T07:04:41;3;3;
80643;PMS5003;70010;60.224;24.712;2023-07-20T07:07:06;5;4;
80643;PMS5003;70010;60.224;24.712;2023-07-20T07:09:31;2;2;
80643;PMS5003;70010;60.224;24.712;2023-07-20T07:11:57;2;2;
80643;PMS5003;70010;60.224;24.712;2023-07-20T07:14:22;3;3;
80643;PMS5003;70010;60.224;24.712;2023-07-20T07:16:47;3;3;
80643;PMS5003;70010;60.224;24.712;2023-07-20T07:19:12;2;2;
80643;PMS5003;70010;60.224;24.712;2023-07-20T07:21:37;2;2;
80643;PMS5003;70010;60.224;24.712;2023-07-20T07:24:03;2;2;
80643;PMS5003;70010;60.224;24.712;2023-07-20T07:26:28;1;1;
80643;PMS5003;70010;60.224;24.712;2023-07-20T07:28:53;1;1;
80643;PMS5003;70010;60.224;24.712;2023-07-20T07:31:18;2;2;
80643;PMS5003;70010;60.224;24.712;2023-07-20T07:33:43;2;2;
80643;PMS5003;70010;60.224;24.712;2023-07-20T07:36:09;3;3;
80643;PMS5003;70010;60.224;24.712;2023-07-20T07:38:34;3;3;
80643;PMS5003;70010;60.224;24.712;2023-07-20T07:40:59;2;2;
80643;PMS5003;70010;60.224;24.712;2023-07-20T07:43:24;2;2;
80643;PMS5003;70010;60.224;24.712;2023-07-20T07:45:49;2;2;
80643;PMS5003;70010;60.224;24.712;2023-07-20T07:48:15;4;2;
80643;PMS5003;70010;60.224;24.712;2023-07-20T07:50:40;2;2;
80643;PMS5003;70010;60.224;24.712;2023-07-20T07:53:05;2;2;
80643;PMS5003;70010;60.224;24.712;2023-07-20T07:55:30;1;1;
80643;PMS5003;70010;60.224;24.712;2023-07-20T07:57:55;2;2;
80643;PMS5003;70010;60.224;24.712;2023-07-20T08:00:21;1;1;
80643;PMS5003;70010;60.224;24.712;2023-07-20T08:02:46;2;2;
80643;PMS5003;70010;60.224;24.712;2023-07-20T08:05:11;2;2;
80643;PMS5003;70010;60.224;24.712;2023-07-20T08:07:36;1;1;
80643;PMS5003;70010;60.224;24.712;2023-07-20T08:10:02;1;1;
80643;PMS5003;70010;60.224;24.712;2023-07-20T08:12:27;1;1;
80643;PMS5003;70010;60.224;24.712;2023-07-20T08:14:52;2;2;
80643;PMS5003;70010;60.224;24.712;2023-07-20T08:17:17;3;1;
80643;PMS5003;70010;60.224;24.712;2023-07-20T08:19:42;1;1;
80643;PMS5003;70010;60.224;24.712;2023-07-20T08:22:08;0;0;
80643;PMS5003;70010;60.224;24.712;2023-07-20T08:24:33;1;1;
80643;PMS5003;70010;60.224;24.712;2023-07-20T08:26:58;1;1;
80643;PMS5003;70010;60.224;24.712;2023-07-20T08:29:23;0;0;
80643;PMS5003;70010;60.224;24.712;2023-07-20T08:31:48;1;1;
80643;PMS5003;70010;60.224;24.712;2023-07-20T08:34:14;1;1;
80643;PMS5003;70010;60.224;24.712;2023-07-20T08:36:39;1;0;
80643;PMS5003;70010;60.224;24.712;2023-07-20T08:39:04;1;1;
80643;PMS5003;70010;60.224;24.712;2023-07-20T08:41:29;1;1;
80643;PMS5003;70010;60.224;24.712;2023-07-20T08:43:55;0;0;
80643;PMS5003;70010;60.224;24.712;2023-07-20T08:46:20;0;0;
80643;PMS5003;70010;60.224;24.712;2023-07-20T08:48:45;0;0;
80643;PMS5003;70010;60.224;24.712;2023-07-20T08:51:10;1;1;
80643;PMS5003;70010;60.224;24.712;2023-07-20T08:53:35;0;0;
80643;PMS5003;70010;60.224;24.712;2023-07-20T08:56:01;0;0;
80643;PMS5003;70010;60.224;24.712;2023-07-20T08:58:26;0;0;
80643;PMS5003;70010;60.224;24.712;2023-07-20T09:00:51;0;0;
80643;PMS5003;70010;60.224;24.712;2023-07-20T09:03:16;0;0;
80643;PMS5003;70010;60.224;24.712;2023-07-20T09:05:41;2;1;
80643;PMS5003;70010;60.224;24.712;2023-07-20T09:08:07;0;0;
80643;PMS5003;70010;60.224;24.712;2023-07-20T09:10:32;0;0;
80643;PMS5003;70010;60.224;24.712;2023-07-20T09:12:57;0;0;
80643;PMS5003;70010;60.224;24.712;2023-07-20T09:15:22;0;0;
80643;PMS5003;70010;60.224;24.712;2023-07-20T09:17:48;0;0;
80643;PMS5003;70010;60.224;24.712;2023-07-20T09:20:14;1;1;
80643;PMS5003;70010;60.224;24.712;2023-07-20T09:22:38;2;1;
80643;PMS5003;70010;60.224;24.712;2023-07-20T09:25:03;2;1;
80643;PMS5003;70010;60.224;24.712;2023-07-20T09:27:34;0;0;
80643;PMS5003;70010;60.224;24.712;2023-07-20T09:29:53;1;1;
80643;PMS5003;70010;60.224;24.712;2023-07-20T09:32:19;1;1;
80643;PMS5003;70010;60.224;24.712;2023-07-20T09:34:44;1;1;
80643;PMS5003;70010;60.224;24.712;2023-07-20T09:37:09;0;0;
80643;PMS5003;70010;60.224;24.712;2023-07-20T09:42:00;2;0;
80643;PMS5003;70010;60.224;24.712;2023-07-20T09:44:27;1;1;
80643;PMS5003;70010;60.224;24.712;2023-07-20T09:46:50;0;0;
80643;PMS5003;70010;60.224;24.712;2023-07-20T09:49:15;0;0;
80643;PMS5003;70010;60.224;24.712;2023-07-20T09:51:40;0;0;
80643;PMS5003;70010;60.224;24.712;2023-07-20T09:54:05;0;0;
80643;PMS5003;70010;60.224;24.712;2023-07-20T09:56:31;0;0;
80643;PMS5003;70010;60.224;24.712;2023-07-20T09:58:56;0;0;
80643;PMS5003;70010;60.224;24.712;2023-07-20T10:01:21;1;0;
80643;PMS5003;70010;60.224;24.712;2023-07-20T10:03:46;2;1;
80643;PMS5003;70010;60.224;24.712;2023-07-20T10:06:12;0;0;
80643;PMS5003;70010;60.224;24.712;2023-07-20T10:08:38;0;0;
80643;PMS5003;70010;60.224;24.712;2023-07-20T10:11:02;0;0;
80643;PMS5003;70010;60.224;24.712;2023-07-20T10:13:27;1;1;
80643;PMS5003;70010;60.224;24.712;2023-07-20T10:15:53;1;0;
80643;PMS5003;70010;60.224;24.712;2023-07-20T10:18:17;2;2;
80643;PMS5003;70010;60.224;24.712;2023-07-20T10:20:42;0;0;
80643;PMS5003;70010;60.224;24.712;2023-07-20T10:23:08;0;0;
80643;PMS5003;70010;60.224;24.712;2023-07-20T10:25:33;1;1;
80643;PMS5003;70010;60.224;24.712;2023-07-20T10:27:58;1;1;
80643;PMS5003;70010;60.224;24.712;2023-07-20T10:30:23;1;1;
80643;PMS5003;70010;60.224;24.712;2023-07-20T10:32:48;0;0;
80643;PMS5003;70010;60.224;24.712;2023-07-20T10:35:14;1;1;
80643;PMS5003;70010;60.224;24.712;2023-07-20T10:42:32;0;0;
80643;PMS5003;70010;60.224;24.712;2023-07-20T10:44:55;1;1;
80643;PMS5003;70010;60.224;24.712;2023-07-20T10:47:20;0;0;
80643;PMS5003;70010;60.224;24.712;2023-07-20T10:52:10;0;0;
80643;PMS5003;70010;60.224;24.712;2023-07-20T11:01:54;1;1;
80643;PMS5003;70010;60.224;24.712;2023-07-20T11:04:16;1;1;
80643;PMS5003;70010;60.224;24.712;2023-07-20T11:06:42;1;1;
80643;PMS5003;70010;60.224;24.712;2023-07-20T11:09:07;0;0;
80643;PMS5003;70010;60.224;24.712;2023-07-20T11:11:32;1;1;
80643;PMS5003;70010;60.224;24.712;2023-07-20T11:13:58;1;1;
80643;PMS5003;70010;60.224;24.712;2023-07-20T11:18:47;3;1;
80643;PMS5003;70010;60.224;24.712;2023-07-20T11:21:13;2;2;
80643;PMS5003;70010;60.224;24.712;2023-07-20T11:23:38;1;1;
80643;PMS5003;70010;60.224;24.712;2023-07-20T11:26:03;0;0;
80643;PMS5003;70010;60.224;24.712;2023-07-20T11:28:30;1;1;
80643;PMS5003;70010;60.224;24.712;2023-07-20T11:30:53;2;2;
80643;PMS5003;70010;60.224;24.712;2023-07-20T11:33:19;0;0;
80643;PMS5003;70010;60.224;24.712;2023-07-20T11:35:44;1;1;
80643;PMS5003;70010;60.224;24.712;2023-07-20T11:38:09;0;0;
80643;PMS5003;70010;60.224;24.712;2023-07-20T11:40:35;0;0;
80643;PMS5003;70010;60.224;24.712;2023-07-20T11:43:00;2;2;
80643;PMS5003;70010;60.224;24.712;2023-07-20T11:45:25;1;1;
80643;PMS5003;70010;60.224;24.712;2023-07-20T11:47:51;2;1;
80643;PMS5003;70010;60.224;24.712;2023-07-20T11:50:16;1;1;
80643;PMS5003;70010;60.224;24.712;2023-07-20T11:52:42;0;0;
80643;PMS5003;70010;60.224;24.712;2023-07-20T11:55:07;2;2;
80643;PMS5003;70010;60.224;24.712;2023-07-20T11:57:32;1;1;
80643;PMS5003;70010;60.224;24.712;2023-07-20T11:59:58;0;0;
80643;PMS5003;70010;60.224;24.712;2023-07-20T12:02:22;1;1;
80643;PMS5003;70010;60.224;24.712;2023-07-20T12:04:48;1;1;
80643;PMS5003;70010;60.224;24.712;2023-07-20T12:07:13;1;1;
80643;PMS5003;70010;60.224;24.712;2023-07-20T12:09:38;1;1;
80643;PMS5003;70010;60.224;24.712;2023-07-20T12:14:28;1;1;
80643;PMS5003;70010;60.224;24.712;2023-07-20T12:16:54;0;0;
80643;PMS5003;70010;60.224;24.712;2023-07-20T12:19:19;0;0;
80643;PMS5003;70010;60.224;24.712;2023-07-20T12:21:44;1;1;
80643;PMS5003;70010;60.224;24.712;2023-07-20T12:24:10;0;0;
80643;PMS5003;70010;60.224;24.712;2023-07-20T12:26:34;1;0;
80643;PMS5003;70010;60.224;24.712;2023-07-20T12:29:00;1;1;
80643;PMS5003;70010;60.224;24.712;2023-07-20T12:31:25;1;1;
80643;PMS5003;70010;60.224;24.712;2023-07-20T12:33:50;1;1;
80643;PMS5003;70010;60.224;24.712;2023-07-20T12:36:15;0;0;
80643;PMS5003;70010;60.224;24.712;2023-07-20T12:38:40;1;1;
80643;PMS5003;70010;60.224;24.712;2023-07-20T12:41:06;3;1;
80643;PMS5003;70010;60.224;24.712;2023-07-20T12:43:31;2;2;
80643;PMS5003;70010;60.224;24.712;2023-07-20T12:45:56;3;1;
80643;PMS5003;70010;60.224;24.712;2023-07-20T12:48:21;2;2;
80643;PMS5003;70010;60.224;24.712;2023-07-20T12:50:46;1;1;
80643;PMS5003;70010;60.224;24.712;2023-07-20T12:53:12;0;0;
80643;PMS5003;70010;60.224;24.712;2023-07-20T12:55:37;1;0;
80643;PMS5003;70010;60.224;24.712;2023-07-20T12:58:02;0;0;
80643;PMS5003;70010;60.224;24.712;2023-07-20T13:00:27;1;1;
80643;PMS5003;70010;60.224;24.712;2023-07-20T13:02:52;0;0;
80643;PMS5003;70010;60.224;24.712;2023-07-20T13:05:18;1;1;
80643;PMS5003;70010;60.224;24.712;2023-07-20T13:07:43;0;0;
80643;PMS5003;70010;60.224;24.712;2023-07-20T13:10:09;1;1;
80643;PMS5003;70010;60.224;24.712;2023-07-20T13:12:34;2;0;
80643;PMS5003;70010;60.224;24.712;2023-07-20T13:14:59;1;1;
80643;PMS5003;70010;60.224;24.712;2023-07-20T13:17:24;2;2;
80643;PMS5003;70010;60.224;24.712;2023-07-20T13:19:49;0;0;
80643;PMS5003;70010;60.224;24.712;2023-07-20T13:22:14;0;0;
80643;PMS5003;70010;60.224;24.712;2023-07-20T13:24:39;0;0;
80643;PMS5003;70010;60.224;24.712;2023-07-20T13:27:05;0;0;
80643;PMS5003;70010;60.224;24.712;2023-07-20T13:29:30;1;0;
80643;PMS5003;70010;60.224;24.712;2023-07-20T13:31:55;1;0;
80643;PMS5003;70010;60.224;24.712;2023-07-20T13:34:20;0;0;
80643;PMS5003;70010;60.224;24.712;2023-07-20T13:36:45;0;0;
80643;PMS5003;70010;60.224;24.712;2023-07-20T13:39:10;0;0;
80643;PMS5003;70010;60.224;24.712;2023-07-20T13:41:36;1;0;
80643;PMS5003;70010;60.224;24.712;2023-07-20T13:44:01;1;0;
80643;PMS5003;70010;60.224;24.712;2023-07-20T13:46:26;0;0;
80643;PMS5003;70010;60.224;24.712;2023-07-20T13:48:51;0;0;
80643;PMS5003;70010;60.224;24.712;2023-07-20T13:51:16;0;0;
80643;PMS5003;70010;60.224;24.712;2023-07-20T13:53:42;0;0;
80643;PMS5003;70010;60.224;24.712;2023-07-20T13:56:07;0;0;
80643;PMS5003;70010;60.224;24.712;2023-07-20T13:58:32;0;0;
80643;PMS5003;70010;60.224;24.712;2023-07-20T14:00:58;0;0;
80643;PMS5003;70010;60.224;24.712;2023-07-20T14:03:23;0;0;
80643;PMS5003;70010;60.224;24.712;2023-07-20T14:05:48;0;0;
80643;PMS5003;70010;60.224;24.712;2023-07-20T14:08:13;0;0;
80643;PMS5003;70010;60.224;24.712;2023-07-20T14:10:38;1;0;
80643;PMS5003;70010;60.224;24.712;2023-07-20T14:13:04;0;0;
80643;PMS5003;70010;60.224;24.712;2023-07-20T14:15:29;0;0;
80643;PMS5003;70010;60.224;24.712;2023-07-20T14:17:54;0;0;
80643;PMS5003;70010;60.224;24.712;2023-07-20T14:20:19;0;0;
80643;PMS5003;70010;60.224;24.712;2023-07-20T14:22:45;1;1;
80643;PMS5003;70010;60.224;24.712;2023-07-20T14:25:10;0;0;
80643;PMS5003;70010;60.224;24.712;2023-07-20T14:27:35;0;0;
80643;PMS5003;70010;60.224;24.712;2023-07-20T14:30:00;0;0;
80643;PMS5003;70010;60.224;24.712;2023-07-20T14:32:26;0;0;
80643;PMS5003;70010;60.224;24.712;2023-07-20T14:34:51;0;0;
80643;PMS5003;70010;60.224;24.712;2023-07-20T14:37:16;0;0;
80643;PMS5003;70010;60.224;24.712;2023-07-20T14:39:41;0;0;
80643;PMS5003;70010;60.224;24.712;2023-07-20T14:42:07;0;0;
80643;PMS5003;70010;60.224;24.712;2023-07-20T14:44:32;0;0;
80643;PMS5003;70010;60.224;24.712;2023-07-20T14:46:57;0;0;
80643;PMS5003;70010;60.224;24.712;2023-07-20T14:49:22;0;0;
80643;PMS5003;70010;60.224;24.712;2023-07-20T14:51:47;0;0;
80643;PMS5003;70010;60.224;24.712;2023-07-20T14:54:13;0;0;
80643;PMS5003;70010;60.224;24.712;2023-07-20T14:56:38;1;1;
80643;PMS5003;70010;60.224;24.712;2023-07-20T14:59:03;0;0;
80643;PMS5003;70010;60.224;24.712;2023-07-20T15:01:28;0;0;
80643;PMS5003;70010;60.224;24.712;2023-07-20T15:03:53;1;0;
80643;PMS5003;70010;60.224;24.712;2023-07-20T15:06:19;0;0;
80643;PMS5003;70010;60.224;24.712;2023-07-20T15:08:44;0;0;
80643;PMS5003;70010;60.224;24.712;2023-07-20T15:11:09;0;0;
80643;PMS5003;70010;60.224;24.712;2023-07-20T15:13:34;0;0;
80643;PMS5003;70010;60.224;24.712;2023-07-20T15:16:00;0;0;
80643;PMS5003;70010;60.224;24.712;2023-07-20T15:18:25;0;0;
80643;PMS5003;70010;60.224;24.712;2023-07-20T15:20:50;1;1;
80643;PMS5003;70010;60.224;24.712;2023-07-20T15:23:15;1;1;
80643;PMS5003;70010;60.224;24.712;2023-07-20T15:25:40;0;0;
80643;PMS5003;70010;60.224;24.712;2023-07-20T15:28:06;1;1;
80643;PMS5003;70010;60.224;24.712;2023-07-20T15:30:31;0;0;
80643;PMS5003;70010;60.224;24.712;2023-07-20T15:32:56;0;0;
80643;PMS5003;70010;60.224;24.712;2023-07-20T15:35:22;0;0;
80643;PMS5003;70010;60.224;24.712;2023-07-20T15:37:47;0;0;
80643;PMS5003;70010;60.224;24.712;2023-07-20T15:40:12;1;1;
80643;PMS5003;70010;60.224;24.712;2023-07-20T15:42:37;0;0;
80643;PMS5003;70010;60.224;24.712;2023-07-20T15:45:02;0;0;
80643;PMS5003;70010;60.224;24.712;2023-07-20T15:47:27;1;1;
80643;PMS5003;70010;60.224;24.712;2023-07-20T15:49:53;0;0;
80643;PMS5003;70010;60.224;24.712;2023-07-20T15:52:18;2;1;
80643;PMS5003;70010;60.224;24.712;2023-07-20T15:54:43;2;2;
80643;PMS5003;70010;60.224;24.712;2023-07-20T15:57:08;2;0;
80643;PMS5003;70010;60.224;24.712;2023-07-20T15:59:34;2;0;
80643;PMS5003;70010;60.224;24.712;2023-07-20T16:01:59;0;0;
80643;PMS5003;70010;60.224;24.712;2023-07-20T16:04:24;0;0;
80643;PMS5003;70010;60.224;24.712;2023-07-20T16:06:49;0;0;
80643;PMS5003;70010;60.224;24.712;2023-07-20T16:09:15;0;0;
80643;PMS5003;70010;60.224;24.712;2023-07-20T16:11:40;1;0;
80643;PMS5003;70010;60.224;24.712;2023-07-20T16:14:05;0;0;
80643;PMS5003;70010;60.224;24.712;2023-07-20T16:16:30;0;0;
80643;PMS5003;70010;60.224;24.712;2023-07-20T16:18:55;0;0;
80643;PMS5003;70010;60.224;24.712;2023-07-20T16:21:21;0;0;
80643;PMS5003;70010;60.224;24.712;2023-07-20T16:23:46;0;0;
80643;PMS5003;70010;60.224;24.712;2023-07-20T16:26:11;1;1;
80643;PMS5003;70010;60.224;24.712;2023-07-20T16:28:36;0;0;
80643;PMS5003;70010;60.224;24.712;2023-07-20T16:33:27;0;0;
80643;PMS5003;70010;60.224;24.712;2023-07-20T16:35:52;0;0;
80643;PMS5003;70010;60.224;24.712;2023-07-20T16:38:17;0;0;
80643;PMS5003;70010;60.224;24.712;2023-07-20T16:40:43;2;1;
80643;PMS5003;70010;60.224;24.712;2023-07-20T16:43:08;0;0;
80643;PMS5003;70010;60.224;24.712;2023-07-20T16:45:33;0;0;